Time;durP1;ratioP1;P1;durP2;ratioP2;P2;SDS_P1;SDS_P2;PMS_P1;PMS_P2;Temp;Humidity;BMP_temperature;BMP_pressure;BME280_temperature;BME280_humidity;BME280_pressure;Samples;Min_cycle;Max_cycle;Signal;HPM_P1;HPM_P2
2024/04/21 00:01:34;;;;;;;1.60;1.17;;;;;;;;;;5456058;26;20243;-38
2024/04/21 00:04:00;;;;;;;1.67;1.20;;;;;;;;;;5442991;26;20235;-39
2024/04/21 00:06:26;;;;;;;1.50;1.15;;;;;;;;;;5445501;26;20231;-39
2024/04/21 00:08:52;;;;;;;1.05;1.05;;;;;;;;;;5451542;26;20734;-39
2024/04/21 00:11:18;;;;;;;1.80;1.25;;;;;;;;;;5435149;26;20285;-39
2024/04/21 00:13:44;;;;;;;1.23;0.93;;;;;;;;;;5446688;26;20231;-39
2024/04/21 00:16:10;;;;;;;1.55;1.02;;;;;;;;;;5451251;26;20231;-39
2024/04/21 00:18:36;;;;;;;0.95;0.95;;;;;;;;;;5445826;26;20274;-39
2024/04/21 00:21:02;;;;;;;3.10;1.77;;;;;;;;;;5432994;26;20248;-39
2024/04/21 00:23:28;;;;;;;1.10;0.93;;;;;;;;;;5423047;26;20232;-39
2024/04/21 00:25:57;;;;;;;1.48;0.98;;;;;;;;;;5435816;26;20650;-39
2024/04/21 00:28:23;;;;;;;1.73;1.02;;;;;;;;;;5452692;26;20231;-39
2024/04/21 00:30:49;;;;;;;1.05;0.95;;;;;;;;;;5445732;26;20258;-39
2024/04/21 00:33:15;;;;;;;2.42;1.25;;;;;;;;;;5425880;26;20604;-39
2024/04/21 00:35:47;;;;;;;1.30;1.20;;;;;;;;;;5441151;26;20312;-40
2024/04/21 00:38:13;;;;;;;1.25;1.13;;;;;;;;;;5437209;26;20232;-39
2024/04/21 00:40:39;;;;;;;1.33;0.98;;;;;;;;;;5456633;26;20224;-39
2024/04/21 00:43:05;;;;;;;1.08;0.98;;;;;;;;;;5439692;26;20286;-39
2024/04/21 00:45:32;;;;;;;1.65;1.00;;;;;;;;;;5444450;26;20248;-39
2024/04/21 00:47:58;;;;;;;1.10;1.00;;;;;;;;;;5443965;26;20740;-39
2024/04/21 00:50:25;;;;;;;1.05;0.95;;;;;;;;;;5454589;26;20279;-39
2024/04/21 00:52:52;;;;;;;0.80;0.80;;;;;;;;;;5453963;26;20442;-39
2024/04/21 00:55:18;;;;;;;1.35;0.88;;;;;;;;;;5441153;26;20232;-39
2024/04/21 00:57:44;;;;;;;1.40;0.80;;;;;;;;;;5450162;26;20701;-39
2024/04/21 01:00:11;;;;;;;0.80;0.77;;;;;;;;;;5448903;26;20229;-39
2024/04/21 01:02:36;;;;;;;0.95;0.90;;;;;;;;;;5450766;26;20278;-39
2024/04/21 01:05:02;;;;;;;0.80;0.80;;;;;;;;;;5435451;26;20233;-39
2024/04/21 01:07:28;;;;;;;1.20;1.10;;;;;;;;;;5452615;26;20231;-40
2024/04/21 01:09:55;;;;;;;0.77;0.77;;;;;;;;;;5452990;26;20313;-39
2024/04/21 01:12:21;;;;;;;1.30;1.10;;;;;;;;;;5444438;26;20286;-39
2024/04/21 01:14:46;;;;;;;1.10;1.00;;;;;;;;;;5450591;26;20228;-39
2024/04/21 01:17:12;;;;;;;0.80;0.80;;;;;;;;;;5450279;26;20270;-40
2024/04/21 01:19:38;;;;;;;1.05;0.90;;;;;;;;;;5442840;26;20240;-39
2024/04/21 01:22:04;;;;;;;0.85;0.85;;;;;;;;;;5436693;26;20278;-39
2024/04/21 01:24:30;;;;;;;1.08;0.80;;;;;;;;;;5450254;26;20247;-39
2024/04/21 01:26:56;;;;;;;0.70;0.70;;;;;;;;;;5432683;26;20229;-39
2024/04/21 01:29:22;;;;;;;0.85;0.80;;;;;;;;;;5450923;26;20314;-39
2024/04/21 01:31:48;;;;;;;1.13;0.70;;;;;;;;;;5450685;26;20240;-39
2024/04/21 01:34:14;;;;;;;0.90;0.90;;;;;;;;;;5453911;26;20243;-39
2024/04/21 01:36:40;;;;;;;1.20;0.98;;;;;;;;;;5435659;26;20235;-39
2024/04/21 01:39:06;;;;;;;2.80;0.95;;;;;;;;;;5446828;26;20227;-39
2024/04/21 01:41:32;;;;;;;0.75;0.75;;;;;;;;;;5440886;26;20692;-40
2024/04/21 01:43:58;;;;;;;0.80;0.80;;;;;;;;;;5422141;26;892729;-39
2024/04/21 01:46:24;;;;;;;0.68;0.68;;;;;;;;;;5452294;26;20278;-40
2024/04/21 01:48:50;;;;;;;0.80;0.80;;;;;;;;;;5454300;26;20602;-39
2024/04/21 01:51:15;;;;;;;1.00;0.80;;;;;;;;;;5436971;26;20279;-39
2024/04/21 01:53:42;;;;;;;0.80;0.80;;;;;;;;;;5452651;26;20361;-39
2024/04/21 01:56:08;;;;;;;0.70;0.70;;;;;;;;;;5439885;26;20295;-39
2024/04/21 01:58:34;;;;;;;0.93;0.70;;;;;;;;;;5446703;26;20237;-39
2024/04/21 02:01:00;;;;;;;0.88;0.73;;;;;;;;;;5453190;26;20278;-39
2024/04/21 02:03:26;;;;;;;0.85;0.80;;;;;;;;;;5454685;26;20227;-39
2024/04/21 02:05:51;;;;;;;1.80;0.90;;;;;;;;;;5442675;26;20299;-39
2024/04/21 02:08:17;;;;;;;0.75;0.75;;;;;;;;;;5448051;26;20313;-39
2024/04/21 02:10:43;;;;;;;2.72;0.90;;;;;;;;;;5445992;26;20693;-40
2024/04/21 02:13:09;;;;;;;0.70;0.70;;;;;;;;;;5446609;26;20228;-40
2024/04/21 02:15:35;;;;;;;0.90;0.90;;;;;;;;;;5449345;26;20297;-39
2024/04/21 02:18:01;;;;;;;1.20;0.65;;;;;;;;;;5447516;26;20512;-39
2024/04/21 02:20:27;;;;;;;1.10;1.00;;;;;;;;;;5449890;26;20235;-39
2024/04/21 02:22:53;;;;;;;1.00;0.90;;;;;;;;;;5445179;26;20312;-39
2024/04/21 02:25:19;;;;;;;0.80;0.80;;;;;;;;;;5447093;26;20231;-39
2024/04/21 02:27:45;;;;;;;1.60;0.90;;;;;;;;;;5440457;26;20235;-39
2024/04/21 02:30:11;;;;;;;0.93;0.80;;;;;;;;;;5434003;26;20722;-39
2024/04/21 02:32:38;;;;;;;0.65;0.65;;;;;;;;;;5454164;26;20271;-39
2024/04/21 02:35:04;;;;;;;0.70;0.70;;;;;;;;;;5449975;26;20637;-39
2024/04/21 02:37:30;;;;;;;0.57;0.57;;;;;;;;;;5433849;26;20326;-39
2024/04/21 02:39:56;;;;;;;0.98;0.80;;;;;;;;;;5440222;26;20505;-40
2024/04/21 02:42:22;;;;;;;0.60;0.60;;;;;;;;;;5451351;26;20328;-39
2024/04/21 02:44:48;;;;;;;1.40;0.80;;;;;;;;;;5445363;26;20309;-39
2024/04/21 02:47:14;;;;;;;0.60;0.60;;;;;;;;;;5449487;26;20305;-39
2024/04/21 02:49:40;;;;;;;0.90;0.90;;;;;;;;;;5449939;26;20243;-39
2024/04/21 02:52:06;;;;;;;1.00;0.90;;;;;;;;;;5450270;26;20520;-39
2024/04/21 02:54:31;;;;;;;0.68;0.68;;;;;;;;;;5443935;26;20529;-39
2024/04/21 02:56:57;;;;;;;0.47;0.47;;;;;;;;;;5453422;26;20247;-39
2024/04/21 02:59:23;;;;;;;1.25;0.70;;;;;;;;;;5447665;26;20338;-39
2024/04/21 03:01:49;;;;;;;1.10;0.75;;;;;;;;;;5446586;26;20481;-39
2024/04/21 03:04:18;;;;;;;0.60;0.60;;;;;;;;;;5435789;26;20275;-39
2024/04/21 03:06:50;;;;;;;0.98;0.90;;;;;;;;;;5440852;26;20235;-39
2024/04/21 03:09:16;;;;;;;0.80;0.70;;;;;;;;;;5452722;26;20227;-39
2024/04/21 03:11:42;;;;;;;0.68;0.63;;;;;;;;;;5440693;26;20231;-39
2024/04/21 03:14:08;;;;;;;1.10;0.50;;;;;;;;;;5449275;26;20320;-39
2024/04/21 03:16:34;;;;;;;0.93;0.82;;;;;;;;;;5450684;26;20729;-39
2024/04/21 03:19:01;;;;;;;0.90;0.90;;;;;;;;;;5452374;26;20232;-39
2024/04/21 03:21:27;;;;;;;0.60;0.57;;;;;;;;;;5437105;26;20513;-39
2024/04/21 03:23:53;;;;;;;0.50;0.50;;;;;;;;;;5452638;26;20281;-39
2024/04/21 03:26:19;;;;;;;1.20;0.80;;;;;;;;;;5453776;26;20274;-39
2024/04/21 03:28:45;;;;;;;0.93;0.73;;;;;;;;;;5445620;26;20279;-39
2024/04/21 03:31:11;;;;;;;0.68;0.68;;;;;;;;;;5447987;26;20224;-39
2024/04/21 03:33:37;;;;;;;0.60;0.60;;;;;;;;;;5422500;26;20225;-39
2024/04/21 03:36:04;;;;;;;0.77;0.70;;;;;;;;;;5437272;26;20322;-39
2024/04/21 03:38:30;;;;;;;0.68;0.68;;;;;;;;;;5433769;26;20247;-39
2024/04/21 03:40:56;;;;;;;0.80;0.80;;;;;;;;;;5453281;26;20479;-39
2024/04/21 03:43:22;;;;;;;0.60;0.60;;;;;;;;;;5448120;26;20576;-39
2024/04/21 03:45:48;;;;;;;0.60;0.60;;;;;;;;;;5445822;26;20224;-39
2024/04/21 03:48:14;;;;;;;0.60;0.60;;;;;;;;;;5447587;26;20688;-39
2024/04/21 03:50:41;;;;;;;3.33;0.57;;;;;;;;;;5444217;26;20271;-39
2024/04/21 03:53:09;;;;;;;0.73;0.73;;;;;;;;;;5444755;26;20278;-39
2024/04/21 03:55:34;;;;;;;0.90;0.70;;;;;;;;;;5446970;26;20610;-38
2024/04/21 03:58:00;;;;;;;1.00;0.85;;;;;;;;;;5451207;26;20232;-39
2024/04/21 04:00:26;;;;;;;1.75;0.60;;;;;;;;;;5430636;26;20278;-40
2024/04/21 04:02:52;;;;;;;0.50;0.50;;;;;;;;;;5422273;26;20239;-39
2024/04/21 04:05:18;;;;;;;2.58;0.50;;;;;;;;;;5449195;26;20227;-39
2024/04/21 04:07:45;;;;;;;0.70;0.70;;;;;;;;;;5440200;26;20231;-39
2024/04/21 04:10:11;;;;;;;1.77;0.60;;;;;;;;;;5451898;26;20324;-39
2024/04/21 04:12:42;;;;;;;1.20;0.75;;;;;;;;;;5444771;26;20479;-39
2024/04/21 04:15:09;;;;;;;0.50;0.50;;;;;;;;;;5435002;26;20322;-39
2024/04/21 04:17:35;;;;;;;0.65;0.65;;;;;;;;;;5447735;26;20315;-39
2024/04/21 04:20:01;;;;;;;0.70;0.70;;;;;;;;;;5452344;26;20236;-39
2024/04/21 04:22:27;;;;;;;0.50;0.50;;;;;;;;;;5446976;26;20514;-39
2024/04/21 04:24:53;;;;;;;1.17;0.52;;;;;;;;;;5453606;26;20223;-39
2024/04/21 04:27:19;;;;;;;1.05;0.80;;;;;;;;;;5440312;26;20228;-39
2024/04/21 04:29:45;;;;;;;0.60;0.60;;;;;;;;;;5448502;26;20270;-39
2024/04/21 04:32:10;;;;;;;1.15;0.70;;;;;;;;;;5439258;26;20274;-39
2024/04/21 04:34:37;;;;;;;0.40;0.40;;;;;;;;;;5448921;26;22018;-39
2024/04/21 04:37:03;;;;;;;0.57;0.57;;;;;;;;;;5445178;26;20279;-39
2024/04/21 04:39:29;;;;;;;0.50;0.50;;;;;;;;;;5456393;26;20512;-39
2024/04/21 04:41:54;;;;;;;2.22;0.73;;;;;;;;;;5452369;26;20278;-39
2024/04/21 04:44:20;;;;;;;0.57;0.57;;;;;;;;;;5451152;26;20368;-39
2024/04/21 04:46:46;;;;;;;0.60;0.60;;;;;;;;;;5438424;26;20693;-39
2024/04/21 04:49:12;;;;;;;0.80;0.50;;;;;;;;;;5451202;26;20286;-39
2024/04/21 04:51:38;;;;;;;0.70;0.57;;;;;;;;;;5447964;26;20309;-39
2024/04/21 04:54:05;;;;;;;0.50;0.40;;;;;;;;;;5449241;26;20239;-39
2024/04/21 04:56:30;;;;;;;0.50;0.50;;;;;;;;;;5451553;26;20796;-39
2024/04/21 04:58:56;;;;;;;0.68;0.68;;;;;;;;;;5445765;26;20235;-39
2024/04/21 05:01:22;;;;;;;0.73;0.60;;;;;;;;;;5453203;26;20244;-39
2024/04/21 05:03:49;;;;;;;0.60;0.60;;;;;;;;;;5450388;26;20642;-39
2024/04/21 05:06:15;;;;;;;3.00;0.60;;;;;;;;;;5451595;26;20290;-39
2024/04/21 05:08:40;;;;;;;1.13;0.85;;;;;;;;;;5446947;26;20243;-39
2024/04/21 05:11:06;;;;;;;0.60;0.60;;;;;;;;;;5449211;26;20376;-39
2024/04/21 05:13:33;;;;;;;0.80;0.70;;;;;;;;;;5452808;26;20338;-39
2024/04/21 05:15:59;;;;;;;0.70;0.60;;;;;;;;;;5440212;26;20229;-39
2024/04/21 05:18:24;;;;;;;1.73;0.70;;;;;;;;;;5445697;26;20330;-39
2024/04/21 05:20:50;;;;;;;1.55;0.70;;;;;;;;;;5442528;26;20277;-39
2024/04/21 05:23:16;;;;;;;0.60;0.60;;;;;;;;;;5451802;26;20638;-39
2024/04/21 05:25:42;;;;;;;1.83;0.60;;;;;;;;;;5456624;26;20224;-39
2024/04/21 05:28:08;;;;;;;0.70;0.70;;;;;;;;;;5438675;26;20308;-39
2024/04/21 05:30:36;;;;;;;0.63;0.60;;;;;;;;;;5449748;26;20678;-39
2024/04/21 05:33:02;;;;;;;0.65;0.60;;;;;;;;;;5437411;26;20300;-39
2024/04/21 05:35:28;;;;;;;0.60;0.50;;;;;;;;;;5442348;26;20236;-39
2024/04/21 05:37:53;;;;;;;0.55;0.52;;;;;;;;;;5437327;26;20288;-39
2024/04/21 05:40:19;;;;;;;0.52;0.52;;;;;;;;;;5449002;26;20283;-39
2024/04/21 05:42:47;;;;;;;0.50;0.50;;;;;;;;;;5446797;26;20270;-39
2024/04/21 05:45:13;;;;;;;0.90;0.80;;;;;;;;;;5452726;26;20484;-39
2024/04/21 05:47:40;;;;;;;0.80;0.57;;;;;;;;;;5453699;26;20231;-39
2024/04/21 05:50:06;;;;;;;0.65;0.65;;;;;;;;;;5453440;26;20234;-39
2024/04/21 05:52:32;;;;;;;0.52;0.52;;;;;;;;;;5445876;26;20274;-39
2024/04/21 05:54:58;;;;;;;0.45;0.43;;;;;;;;;;5452954;26;20231;-39
2024/04/21 05:57:24;;;;;;;1.50;0.70;;;;;;;;;;5448082;26;20277;-39
2024/04/21 05:59:50;;;;;;;1.05;0.60;;;;;;;;;;5448088;26;20231;-39
2024/04/21 06:02:16;;;;;;;0.98;0.50;;;;;;;;;;5447433;26;20431;-39
2024/04/21 06:04:42;;;;;;;0.50;0.50;;;;;;;;;;5450375;26;20516;-39
2024/04/21 06:07:08;;;;;;;1.17;0.63;;;;;;;;;;5454650;26;20607;-39
2024/04/21 06:09:37;;;;;;;6.68;0.90;;;;;;;;;;5447615;26;20273;-39
2024/04/21 06:12:03;;;;;;;25.65;2.70;;;;;;;;;;5451035;26;20236;-38
2024/04/21 06:14:29;;;;;;;19.67;2.60;;;;;;;;;;5450987;26;20269;-35
2024/04/21 06:16:55;;;;;;;13.82;2.30;;;;;;;;;;5453750;26;20481;-39
2024/04/21 06:19:21;;;;;;;11.65;2.33;;;;;;;;;;5451987;26;20243;-36
2024/04/21 06:21:47;;;;;;;10.98;2.20;;;;;;;;;;5439252;26;20666;-44
2024/04/21 06:24:14;;;;;;;10.70;2.25;;;;;;;;;;5443592;26;20231;-43
2024/04/21 06:26:41;;;;;;;10.50;2.00;;;;;;;;;;5454295;26;20320;-43
2024/04/21 06:29:07;;;;;;;7.88;1.90;;;;;;;;;;5448618;26;20305;-37
2024/04/21 06:31:33;;;;;;;5.32;1.90;;;;;;;;;;5447001;26;20282;-46
2024/04/21 06:33:59;;;;;;;10.65;2.13;;;;;;;;;;5446632;26;20273;-47
2024/04/21 06:36:25;;;;;;;7.15;2.08;;;;;;;;;;5439990;26;20247;-46
2024/04/21 06:38:52;;;;;;;11.77;2.00;;;;;;;;;;5448305;26;20325;-46
2024/04/21 06:41:18;;;;;;;3.17;1.90;;;;;;;;;;5448179;26;20274;-46
2024/04/21 06:43:44;;;;;;;10.05;1.63;;;;;;;;;;5450945;26;20283;-46
2024/04/21 06:46:10;;;;;;;10.65;1.88;;;;;;;;;;5443548;26;20255;-47
2024/04/21 06:48:36;;;;;;;6.80;1.40;;;;;;;;;;5439427;26;20239;-47
2024/04/21 06:51:02;;;;;;;5.15;1.52;;;;;;;;;;5447371;26;20231;-46
2024/04/21 06:53:30;;;;;;;5.18;1.77;;;;;;;;;;5448613;26;20243;-47
2024/04/21 06:55:56;;;;;;;3.25;1.20;;;;;;;;;;5440471;26;20326;-46
2024/04/21 06:58:21;;;;;;;5.72;1.38;;;;;;;;;;5436131;26;21286;-46
2024/04/21 07:00:47;;;;;;;2.60;1.40;;;;;;;;;;5441020;26;20227;-46
2024/04/21 07:03:14;;;;;;;14.48;1.40;;;;;;;;;;5447157;26;20228;-41
2024/04/21 07:05:39;;;;;;;7.45;1.60;;;;;;;;;;5449488;26;20326;-41
2024/04/21 07:08:05;;;;;;;4.53;1.30;;;;;;;;;;5443506;26;20229;-41
2024/04/21 07:10:31;;;;;;;3.90;1.30;;;;;;;;;;5446071;26;20278;-38
2024/04/21 07:12:57;;;;;;;5.57;1.50;;;;;;;;;;5454089;26;20227;-37
2024/04/21 07:15:23;;;;;;;8.90;2.30;;;;;;;;;;5453473;26;20247;-38
2024/04/21 07:17:49;;;;;;;2.60;1.25;;;;;;;;;;5446747;26;20482;-38
2024/04/21 07:20:15;;;;;;;7.68;1.10;;;;;;;;;;5440401;26;20283;-37
2024/04/21 07:22:42;;;;;;;5.88;1.73;;;;;;;;;;5450496;26;20231;-40
2024/04/21 07:25:09;;;;;;;3.47;1.40;;;;;;;;;;5450578;26;20322;-35
2024/04/21 07:27:35;;;;;;;3.25;1.50;;;;;;;;;;5452905;26;20718;-41
2024/04/21 07:30:01;;;;;;;4.28;1.45;;;;;;;;;;5443341;26;20312;-40
2024/04/21 07:32:27;;;;;;;7.57;1.65;;;;;;;;;;5445698;26;20231;-39
2024/04/21 07:34:53;;;;;;;4.93;1.55;;;;;;;;;;5448143;26;20920;-41
2024/04/21 07:37:19;;;;;;;6.00;1.38;;;;;;;;;;5434888;26;20236;-42
2024/04/21 07:39:45;;;;;;;1.70;1.10;;;;;;;;;;5443789;26;20253;-42
2024/04/21 07:42:11;;;;;;;3.63;1.23;;;;;;;;;;5443463;26;20235;-42
2024/04/21 07:44:38;;;;;;;4.95;1.48;;;;;;;;;;5442269;26;20231;-41
2024/04/21 07:47:04;;;;;;;4.13;1.20;;;;;;;;;;5447201;26;20227;-42
2024/04/21 07:49:30;;;;;;;2.63;1.40;;;;;;;;;;5431783;26;20239;-42
2024/04/21 07:51:56;;;;;;;3.45;1.48;;;;;;;;;;5446396;26;20693;-42
2024/04/21 07:54:23;;;;;;;3.17;1.40;;;;;;;;;;5448805;26;20336;-42
2024/04/21 07:56:49;;;;;;;2.60;1.25;;;;;;;;;;5447251;26;20236;-42
2024/04/21 07:59:15;;;;;;;4.63;1.30;;;;;;;;;;5441686;26;20280;-42
2024/04/21 08:01:41;;;;;;;4.70;1.50;;;;;;;;;;5444731;26;20231;-42
2024/04/21 08:04:07;;;;;;;2.60;1.20;;;;;;;;;;5441145;26;20283;-42
2024/04/21 08:06:33;;;;;;;2.40;1.20;;;;;;;;;;5446323;26;20243;-42
2024/04/21 08:08:59;;;;;;;3.90;1.48;;;;;;;;;;5444332;26;20239;-42
2024/04/21 08:11:25;;;;;;;1.65;1.00;;;;;;;;;;5453566;26;20324;-42
2024/04/21 08:13:51;;;;;;;4.50;1.30;;;;;;;;;;5454840;26;20334;-42
2024/04/21 08:16:17;;;;;;;5.72;1.40;;;;;;;;;;5437579;26;20247;-42
2024/04/21 08:18:43;;;;;;;3.70;1.40;;;;;;;;;;5444717;26;20418;-41
2024/04/21 08:21:09;;;;;;;2.65;1.30;;;;;;;;;;5441673;26;20273;-42
2024/04/21 08:23:35;;;;;;;6.32;1.35;;;;;;;;;;5449454;26;20277;-42
2024/04/21 08:26:03;;;;;;;3.00;1.20;;;;;;;;;;5450716;26;20648;-42
2024/04/21 08:28:29;;;;;;;2.45;1.30;;;;;;;;;;5445763;26;20231;-42
2024/04/21 08:30:55;;;;;;;1.92;1.20;;;;;;;;;;5453917;26;20328;-42
2024/04/21 08:33:21;;;;;;;2.13;1.20;;;;;;;;;;5443391;26;20658;-42
2024/04/21 08:35:55;;;;;;;3.03;1.23;;;;;;;;;;5443637;26;20259;-42
2024/04/21 08:38:21;;;;;;;2.78;2.15;;;;;;;;;;5442459;26;20239;-42
2024/04/21 08:40:51;;;;;;;1.65;1.25;;;;;;;;;;5453584;26;20326;-42
2024/04/21 08:43:23;;;;;;;1.20;1.10;;;;;;;;;;5442588;26;20897;-42
2024/04/21 08:45:50;;;;;;;3.15;1.30;;;;;;;;;;5450038;26;20325;-42
2024/04/21 08:48:17;;;;;;;1.50;1.25;;;;;;;;;;5446710;26;20274;-41
2024/04/21 08:50:45;;;;;;;1.20;1.10;;;;;;;;;;5450193;26;22011;-42
2024/04/21 08:53:11;;;;;;;3.30;1.10;;;;;;;;;;5435882;26;20263;-42
2024/04/21 08:55:38;;;;;;;2.55;1.20;;;;;;;;;;5457218;26;20492;-42
2024/04/21 08:58:04;;;;;;;3.03;1.00;;;;;;;;;;5441353;26;20483;-41
2024/04/21 09:00:31;;;;;;;1.23;1.13;;;;;;;;;;5443247;26;20261;-41
2024/04/21 09:02:57;;;;;;;2.25;0.90;;;;;;;;;;5451559;26;20785;-42
2024/04/21 09:05:23;;;;;;;3.38;1.15;;;;;;;;;;5454238;26;20835;-41
2024/04/21 09:07:50;;;;;;;0.90;0.90;;;;;;;;;;5441701;26;20232;-41
2024/04/21 09:10:17;;;;;;;1.63;1.00;;;;;;;;;;5441496;26;20626;-42
2024/04/21 09:12:43;;;;;;;1.20;1.10;;;;;;;;;;5449724;26;20313;-41
2024/04/21 09:15:09;;;;;;;1.40;1.15;;;;;;;;;;5454978;26;20902;-42
2024/04/21 09:17:35;;;;;;;1.52;1.15;;;;;;;;;;5433043;26;20236;-41
2024/04/21 09:20:01;;;;;;;2.83;1.08;;;;;;;;;;5448154;26;20227;-42
2024/04/21 09:22:27;;;;;;;1.83;1.23;;;;;;;;;;5448847;26;20652;-42
2024/04/21 09:24:53;;;;;;;1.48;1.20;;;;;;;;;;5446735;26;20235;-42
2024/04/21 09:27:19;;;;;;;2.42;1.10;;;;;;;;;;5445282;26;20473;-41
2024/04/21 09:29:45;;;;;;;1.60;0.80;;;;;;;;;;5435258;26;20244;-42
2024/04/21 09:32:13;;;;;;;2.35;1.17;;;;;;;;;;5446743;26;20329;-42
2024/04/21 09:34:40;;;;;;;1.20;1.08;;;;;;;;;;5440213;26;20233;-42
2024/04/21 09:37:06;;;;;;;1.05;1.00;;;;;;;;;;5447103;26;20662;-42
2024/04/21 09:39:32;;;;;;;1.33;0.90;;;;;;;;;;5447011;26;20252;-42
2024/04/21 09:41:58;;;;;;;1.67;1.33;;;;;;;;;;5449181;26;20265;-42
2024/04/21 09:44:26;;;;;;;21.67;7.85;;;;;;;;;;5450978;26;20649;-42
2024/04/21 09:46:52;;;;;;;60.35;21.38;;;;;;;;;;5445358;26;20622;-42
2024/04/21 09:49:19;;;;;;;63.65;27.02;;;;;;;;;;5448409;26;20243;-42
2024/04/21 09:51:45;;;;;;;68.90;28.65;;;;;;;;;;5444960;26;20236;-42
2024/04/21 09:54:12;;;;;;;69.15;28.13;;;;;;;;;;5452245;26;20232;-41
2024/04/21 09:56:41;;;;;;;71.22;26.88;;;;;;;;;;5443427;26;20275;-41
2024/04/21 09:59:12;;;;;;;54.63;22.48;;;;;;;;;;5437997;26;20232;-42
2024/04/21 10:01:41;;;;;;;45.63;18.92;;;;;;;;;;5429933;26;20314;-42
2024/04/21 10:04:11;;;;;;;45.22;19.48;;;;;;;;;;5450993;26;20251;-42
2024/04/21 10:06:37;;;;;;;43.85;17.00;;;;;;;;;;5447282;26;20852;-41
2024/04/21 10:09:03;;;;;;;39.95;17.08;;;;;;;;;;5448056;26;20240;-42
2024/04/21 10:11:29;;;;;;;36.90;17.92;;;;;;;;;;5450115;26;20235;-42
2024/04/21 10:13:58;;;;;;;36.53;16.67;;;;;;;;;;5447212;26;20229;-42
2024/04/21 10:16:25;;;;;;;35.72;16.00;;;;;;;;;;5453649;26;20224;-42
2024/04/21 10:19:01;;;;;;;39.05;14.65;;;;;;;;;;5439826;26;20228;-42
2024/04/21 10:21:27;;;;;;;32.70;13.88;;;;;;;;;;5452006;26;20630;-42
2024/04/21 10:23:56;;;;;;;36.33;13.98;;;;;;;;;;5444613;26;20247;-42
2024/04/21 10:26:21;;;;;;;28.83;12.85;;;;;;;;;;5441253;26;20265;-42
2024/04/21 10:28:47;;;;;;;31.10;12.98;;;;;;;;;;5441365;26;20235;-42
2024/04/21 10:31:13;;;;;;;32.53;12.93;;;;;;;;;;5439774;26;20332;-42
2024/04/21 10:33:40;;;;;;;26.45;12.82;;;;;;;;;;5449841;26;20689;-42
2024/04/21 10:36:17;;;;;;;28.08;12.57;;;;;;;;;;5437885;26;20223;-42
2024/04/21 10:38:51;;;;;;;24.40;11.15;;;;;;;;;;5433560;26;20526;-42
2024/04/21 10:41:20;;;;;;;30.17;12.23;;;;;;;;;;5435307;26;20248;-47
2024/04/21 10:43:47;;;;;;;29.40;12.02;;;;;;;;;;5427650;26;20639;-48
2024/04/21 10:46:13;;;;;;;36.72;14.43;;;;;;;;;;5443808;26;20275;-43
2024/04/21 10:48:38;;;;;;;63.65;18.15;;;;;;;;;;5441706;26;20594;-44
2024/04/21 10:51:04;;;;;;;112.22;32.28;;;;;;;;;;5453998;26;20266;-35
2024/04/21 10:53:30;;;;;;;159.05;44.78;;;;;;;;;;5452755;26;20239;-36
2024/04/21 10:55:56;;;;;;;170.43;43.97;;;;;;;;;;5437624;26;20237;-36
2024/04/21 10:58:22;;;;;;;146.75;37.90;;;;;;;;;;5431808;26;20296;-35
2024/04/21 11:00:49;;;;;;;120.13;35.38;;;;;;;;;;5442083;26;20231;-36
2024/04/21 11:03:15;;;;;;;109.20;30.85;;;;;;;;;;5450241;26;20608;-36
2024/04/21 11:05:53;;;;;;;99.28;30.58;;;;;;;;;;5455611;26;20284;-35
2024/04/21 11:08:20;;;;;;;95.80;28.83;;;;;;;;;;5438771;26;20320;-36
2024/04/21 11:10:46;;;;;;;79.10;25.60;;;;;;;;;;5454614;26;20291;-35
2024/04/21 11:13:12;;;;;;;65.30;22.30;;;;;;;;;;5442920;26;20282;-36
2024/04/21 11:15:42;;;;;;;61.08;21.13;;;;;;;;;;5450151;26;20539;-35
2024/04/21 11:18:08;;;;;;;53.20;20.77;;;;;;;;;;5442055;26;20286;-35
2024/04/21 11:20:34;;;;;;;55.35;20.05;;;;;;;;;;5444667;26;20235;-36
2024/04/21 11:23:00;;;;;;;50.88;18.17;;;;;;;;;;5438508;26;20228;-36
2024/04/21 11:25:26;;;;;;;46.35;16.65;;;;;;;;;;5448849;26;20653;-35
2024/04/21 11:27:52;;;;;;;54.17;16.17;;;;;;;;;;5446090;26;20424;-35
2024/04/21 11:30:22;;;;;;;42.50;15.45;;;;;;;;;;5439041;26;20220;-35
2024/04/21 11:32:48;;;;;;;38.83;14.52;;;;;;;;;;5446582;26;20219;-35
2024/04/21 11:35:20;;;;;;;34.58;14.18;;;;;;;;;;5436237;26;20258;-35
2024/04/21 11:37:48;;;;;;;37.30;14.95;;;;;;;;;;5441963;26;20367;-35
2024/04/21 11:40:14;;;;;;;37.97;15.93;;;;;;;;;;5453680;26;20438;-35
2024/04/21 11:42:45;;;;;;;33.05;15.13;;;;;;;;;;5445034;26;20278;-35
2024/04/21 11:45:11;;;;;;;34.53;15.02;;;;;;;;;;5431671;26;20278;-35
2024/04/21 11:47:41;;;;;;;33.22;14.40;;;;;;;;;;5454655;26;20227;-36
2024/04/21 11:50:07;;;;;;;29.50;13.90;;;;;;;;;;5451312;26;20624;-36
2024/04/21 11:52:33;;;;;;;31.00;13.15;;;;;;;;;;5455985;26;20231;-35
2024/04/21 11:54:59;;;;;;;26.38;12.02;;;;;;;;;;5445043;26;20547;-36
2024/04/21 11:57:25;;;;;;;25.08;10.82;;;;;;;;;;5457092;26;20292;-35
2024/04/21 11:59:51;;;;;;;22.83;10.35;;;;;;;;;;5447379;26;20477;-36
2024/04/21 12:02:17;;;;;;;26.23;10.93;;;;;;;;;;5456035;26;20224;-35
2024/04/21 12:04:43;;;;;;;24.30;9.68;;;;;;;;;;5449306;26;20281;-36
2024/04/21 12:07:09;;;;;;;26.92;9.50;;;;;;;;;;5446176;26;20220;-35
2024/04/21 12:09:35;;;;;;;21.13;8.63;;;;;;;;;;5443014;26;20228;-35
2024/04/21 12:12:01;;;;;;;22.13;8.60;;;;;;;;;;5439572;26;20231;-36
2024/04/21 12:14:29;;;;;;;17.52;8.88;;;;;;;;;;5454847;26;20265;-36
2024/04/21 12:16:55;;;;;;;20.63;9.57;;;;;;;;;;5460673;26;20219;-36
2024/04/21 12:19:21;;;;;;;20.85;8.93;;;;;;;;;;5462507;26;20297;-36
2024/04/21 12:21:47;;;;;;;19.17;8.48;;;;;;;;;;5460438;26;20487;-36
2024/04/21 12:24:13;;;;;;;19.60;8.27;;;;;;;;;;5446972;26;20318;-36
2024/04/21 12:26:39;;;;;;;15.23;7.43;;;;;;;;;;5428334;26;20269;-36
2024/04/21 12:29:05;;;;;;;13.93;7.30;;;;;;;;;;5446634;26;20236;-36
2024/04/21 12:31:31;;;;;;;18.17;6.93;;;;;;;;;;5443418;26;20231;-36
2024/04/21 12:33:56;;;;;;;18.50;7.78;;;;;;;;;;5448874;26;20294;-35
2024/04/21 12:36:22;;;;;;;15.52;7.13;;;;;;;;;;5447959;26;20227;-36
2024/04/21 12:38:48;;;;;;;16.33;6.97;;;;;;;;;;5448504;26;20227;-36
2024/04/21 12:41:15;;;;;;;13.73;7.05;;;;;;;;;;5431809;26;20240;-36
2024/04/21 12:43:41;;;;;;;12.90;6.07;;;;;;;;;;5443239;26;20242;-35
2024/04/21 12:46:07;;;;;;;13.65;5.93;;;;;;;;;;5440705;26;20232;-34
2024/04/21 12:48:33;;;;;;;11.95;5.78;;;;;;;;;;5454313;26;20235;-38
2024/04/21 12:50:58;;;;;;;9.98;5.13;;;;;;;;;;5442160;26;20351;-38
2024/04/21 12:53:25;;;;;;;16.10;6.18;;;;;;;;;;5438392;26;20316;-41
2024/04/21 12:55:51;;;;;;;14.52;5.03;;;;;;;;;;5437405;26;20452;-38
2024/04/21 12:58:17;;;;;;;8.77;4.80;;;;;;;;;;5436556;26;20331;-38
2024/04/21 13:00:43;;;;;;;10.88;4.63;;;;;;;;;;5425640;26;20505;-39
2024/04/21 13:03:09;;;;;;;8.75;4.55;;;;;;;;;;5431205;26;20648;-38
2024/04/21 13:05:36;;;;;;;11.45;4.40;;;;;;;;;;5434301;26;20535;-41
2024/04/21 13:08:02;;;;;;;7.20;4.03;;;;;;;;;;5431166;26;20502;-38
2024/04/21 13:10:28;;;;;;;7.68;4.35;;;;;;;;;;5437181;26;20247;-40
2024/04/21 13:12:54;;;;;;;10.00;4.60;;;;;;;;;;5430240;26;20369;-43
2024/04/21 13:15:20;;;;;;;8.02;4.13;;;;;;;;;;5441424;26;20232;-35
2024/04/21 13:17:47;;;;;;;9.50;4.03;;;;;;;;;;5433659;26;20302;-42
2024/04/21 13:20:16;;;;;;;11.02;3.92;;;;;;;;;;5440419;26;20243;-38
2024/04/21 13:22:41;;;;;;;9.90;4.30;;;;;;;;;;5429346;26;20253;-39
2024/04/21 13:25:07;;;;;;;10.77;3.75;;;;;;;;;;5431838;26;20604;-41
2024/04/21 13:27:37;;;;;;;8.85;3.33;;;;;;;;;;5439658;26;20232;-37
2024/04/21 13:30:03;;;;;;;5.95;3.40;;;;;;;;;;5428921;26;20275;-35
2024/04/21 13:32:29;;;;;;;7.13;3.60;;;;;;;;;;5424529;26;20656;-37
2024/04/21 13:34:55;;;;;;;7.97;3.47;;;;;;;;;;5442490;26;20231;-46
2024/04/21 13:37:23;;;;;;;5.35;3.25;;;;;;;;;;5433901;26;20244;-41
2024/04/21 13:39:49;;;;;;;5.93;3.03;;;;;;;;;;5437088;26;20232;-47
2024/04/21 13:42:14;;;;;;;6.43;2.95;;;;;;;;;;5427843;26;20290;-36
2024/04/21 13:44:40;;;;;;;6.63;2.90;;;;;;;;;;5438470;26;20602;-37
2024/04/21 13:47:06;;;;;;;5.85;2.90;;;;;;;;;;5426811;26;20267;-37
2024/04/21 13:49:33;;;;;;;5.80;3.10;;;;;;;;;;5440440;26;20246;-37
2024/04/21 13:51:59;;;;;;;4.40;2.85;;;;;;;;;;5426488;26;20513;-37
2024/04/21 13:54:25;;;;;;;5.43;2.45;;;;;;;;;;5433058;26;20251;-37
2024/04/21 13:56:51;;;;;;;8.20;2.55;;;;;;;;;;5439390;26;20295;-37
2024/04/21 13:59:17;;;;;;;5.13;2.70;;;;;;;;;;5443924;26;20631;-36
2024/04/21 14:01:43;;;;;;;6.10;2.65;;;;;;;;;;5442448;26;20238;-36
2024/04/21 14:04:10;;;;;;;6.03;2.67;;;;;;;;;;5452691;26;20239;-36
2024/04/21 14:06:36;;;;;;;5.65;2.53;;;;;;;;;;5441501;26;20247;-37
2024/04/21 14:09:02;;;;;;;4.95;2.60;;;;;;;;;;5448581;26;20928;-37
2024/04/21 14:11:29;;;;;;;3.95;2.25;;;;;;;;;;5452089;26;20464;-37
2024/04/21 14:13:55;;;;;;;8.45;2.65;;;;;;;;;;5453225;26;20308;-36
2024/04/21 14:16:21;;;;;;;7.70;2.50;;;;;;;;;;5443188;26;20300;-36
2024/04/21 14:18:47;;;;;;;4.18;2.20;;;;;;;;;;5442231;26;20240;-37
2024/04/21 14:21:12;;;;;;;5.68;3.10;;;;;;;;;;5452448;26;20231;-37
2024/04/21 14:23:38;;;;;;;8.73;3.00;;;;;;;;;;5447655;26;20697;-37
2024/04/21 14:26:04;;;;;;;5.10;2.17;;;;;;;;;;5454810;26;20223;-37
2024/04/21 14:28:31;;;;;;;6.30;2.65;;;;;;;;;;5449825;26;20319;-37
2024/04/21 14:31:01;;;;;;;6.78;2.20;;;;;;;;;;5450462;26;20283;-37
2024/04/21 14:33:27;;;;;;;3.72;2.25;;;;;;;;;;5440498;26;20227;-44